Date,TemperatureHighF,TemperatureAvgF,TemperatureLowF,DewpointHighF,DewpointAvgF,DewpointLowF,HumidityHigh,HumidityAvg,HumidityLow,PressureMaxIn,PressureMinIn,WindSpeedMaxMPH,WindSpeedAvgMPH,GustSpeedMaxMPH,PrecipitationSumIn
2013-5-1,76.3,65.3,59.1,67.5,61.7,57.3,97,89,71,30.26,30.09,10,2,15,0.06
2013-5-2,71.5,64.0,59.5,63.7,60.4,57.3,100,89,64,30.28,30.21,8,3,16,0.06
2013-5-3,70.1,62.1,57.1,60.0,55.7,48.9,97,80,57,30.21,30.14,10,4,23,0.00
2013-5-4,64.7,58.5,55.6,59.4,56.3,53.0,98,92,81,30.15,30.03,8,4,17,0.41
2013-5-5,73.9,63.8,57.1,66.3,60.7,55.2,97,90,73,30.06,29.98,14,3,20,0.14
2013-5-6,74.3,66.5,60.4,66.1,63.0,59.0,97,89,71,30.01,29.88,12,4,22,0.70
2013-5-7,73.3,62.2,55.1,63.3,57.7,54.4,99,86,53,29.99,29.87,9,1,15,0.09
2013-5-8,72.6,64.2,52.6,63.2,58.6,51.8,99,83,56,30.05,29.95,10,2,20,0.01
2013-5-9,76.5,69.7,62.9,67.5,63.8,61.1,96,82,71,30.08,29.98,9,2,14,0.00
2013-5-10,79.9,74.4,65.0,70.2,67.9,64.7,99,81,67,30.10,30.03,8,3,17,0.00
2013-5-11,79.3,73.8,70.7,73.3,69.6,66.9,94,87,77,30.05,29.85,14,5,24,0.00
2013-5-12,78.0,71.7,64.3,68.2,65.4,55.2,95,81,64,29.98,29.78,12,2,16,0.00
2013-5-13,69.7,62.5,51.1,58.6,48.7,41.3,84,62,39,30.14,29.98,16,4,22,0.00
2013-5-14,70.0,59.8,46.6,52.1,44.0,33.3,90,59,29,30.25,30.14,16,4,20,0.00
2013-5-15,76.1,71.3,63.4,65.0,62.0,51.5,85,73,64,30.16,29.96,13,5,25,0.00
2013-5-16,82.0,73.0,67.2,70.3,66.6,63.5,89,81,65,29.99,29.92,9,3,16,0.00
2013-5-17,83.8,75.0,68.0,72.6,67.8,65.7,94,79,59,30.14,29.98,8,2,10,0.00
2013-5-18,81.6,73.3,66.4,73.1,68.7,65.0,96,86,70,30.19,30.12,8,2,15,0.00
2013-5-19,81.1,73.8,66.1,71.6,67.9,64.9,98,83,62,30.19,30.11,8,2,14,0.00
2013-5-20,80.5,73.7,68.0,71.6,68.6,64.6,96,84,68,30.17,30.08,11,4,17,0.05
2013-5-21,80.8,75.2,71.1,72.7,70.5,68.7,94,86,72,30.09,30.02,12,4,18,0.00
2013-5-22,82.3,76.4,72.3,74.1,71.6,69.3,95,86,73,30.07,30.00,12,4,18,0.00
2013-5-23,78.0,73.1,69.1,73.4,70.8,67.7,98,93,82,30.02,29.85,10,2,20,0.61
2013-5-24,78.9,72.0,60.4,72.2,64.7,50.7,97,79,58,30.12,29.78,20,7,26,0.01
2013-5-25,60.4,60.3,60.3,52.0,51.8,51.6,74,74,73,30.12,30.12,7,7,10,0.00
2013-5-26,70.8,70.0,65.4,58.4,56.2,55.8,78,62,59,30.28,30.28,2,2,6,0.00
2013-5-27,78.9,73.4,65.5,61.0,58.2,52.1,83,60,44,30.29,30.21,10,2,15,0.00
2013-5-28,80.7,72.1,63.3,67.4,64.7,60.4,94,79,60,30.29,30.21,10,2,16,0.00
2013-5-29,82.3,74.4,65.3,71.1,67.5,63.5,98,80,64,30.28,30.20,10,2,14,0.00
2013-5-30,67.7,66.0,64.7,65.0,63.9,62.9,95,93,90,30.24,30.23,2,0,4,0.00
2013-5-31,80.2,75.5,72.4,72.5,71.7,70.6,95,88,75,30.19,30.16,1,0,7,0.00